sensor_id;sensor_type;location;lat;lon;timestamp;P1;durP1;ratioP1;P2;durP2;ratioP2
793;SDS011;380;48.738;9.214;2024-01-15T00:00:49;18.70;;;9.27;;
793;SDS011;380;48.738;9.214;2024-01-15T00:03:15;21.57;;;10.43;;
793;SDS011;380;48.738;9.214;2024-01-15T00:05:41;14.67;;;9.17;;
793;SDS011;380;48.738;9.214;2024-01-15T00:08:07;13.13;;;8.97;;
793;SDS011;380;48.738;9.214;2024-01-15T00:10:33;17.73;;;10.40;;
793;SDS011;380;48.738;9.214;2024-01-15T00:12:59;12.73;;;8.30;;
793;SDS011;380;48.738;9.214;2024-01-15T00:15:25;14.13;;;10.10;;
793;SDS011;380;48.738;9.214;2024-01-15T00:17:53;15.23;;;9.33;;
793;SDS011;380;48.738;9.214;2024-01-15T00:20:19;14.40;;;8.77;;
793;SDS011;380;48.738;9.214;2024-01-15T00:22:45;10.23;;;8.23;;
793;SDS011;380;48.738;9.214;2024-01-15T00:25:11;17.73;;;10.07;;
793;SDS011;380;48.738;9.214;2024-01-15T00:27:37;12.53;;;8.97;;
793;SDS011;380;48.738;9.214;2024-01-15T00:30:03;13.30;;;8.30;;
793;SDS011;380;48.738;9.214;2024-01-15T00:32:29;15.07;;;8.07;;
793;SDS011;380;48.738;9.214;2024-01-15T00:34:55;13.37;;;8.10;;
793;SDS011;380;48.738;9.214;2024-01-15T00:37:21;16.70;;;8.67;;
793;SDS011;380;48.738;9.214;2024-01-15T00:39:47;14.77;;;9.23;;
793;SDS011;380;48.738;9.214;2024-01-15T00:42:13;14.60;;;9.40;;
793;SDS011;380;48.738;9.214;2024-01-15T00:44:39;18.17;;;7.83;;
793;SDS011;380;48.738;9.214;2024-01-15T00:47:05;20.00;;;8.90;;
793;SDS011;380;48.738;9.214;2024-01-15T00:49:31;11.80;;;7.73;;
793;SDS011;380;48.738;9.214;2024-01-15T00:51:57;19.17;;;10.00;;
793;SDS011;380;48.738;9.214;2024-01-15T00:54:23;13.73;;;7.83;;
793;SDS011;380;48.738;9.214;2024-01-15T00:56:49;16.33;;;8.30;;
793;SDS011;380;48.738;9.214;2024-01-15T00:59:15;15.17;;;9.40;;
793;SDS011;380;48.738;9.214;2024-01-15T01:01:41;14.70;;;8.60;;
793;SDS011;380;48.738;9.214;2024-01-15T01:04:08;12.73;;;8.33;;
793;SDS011;380;48.738;9.214;2024-01-15T01:06:34;15.83;;;9.53;;
793;SDS011;380;48.738;9.214;2024-01-15T01:09:00;11.93;;;9.00;;
793;SDS011;380;48.738;9.214;2024-01-15T01:11:26;17.33;;;8.93;;
793;SDS011;380;48.738;9.214;2024-01-15T01:13:52;12.37;;;7.57;;
793;SDS011;380;48.738;9.214;2024-01-15T01:16:18;12.87;;;7.67;;
793;SDS011;380;48.738;9.214;2024-01-15T01:18:43;13.80;;;10.03;;
793;SDS011;380;48.738;9.214;2024-01-15T01:21:09;12.43;;;7.77;;
793;SDS011;380;48.738;9.214;2024-01-15T01:23:35;13.37;;;7.87;;
793;SDS011;380;48.738;9.214;2024-01-15T01:26:01;11.70;;;7.27;;
793;SDS011;380;48.738;9.214;2024-01-15T01:28:27;18.07;;;9.43;;
793;SDS011;380;48.738;9.214;2024-01-15T01:30:53;17.87;;;8.93;;
793;SDS011;380;48.738;9.214;2024-01-15T01:33:19;14.47;;;8.57;;
793;SDS011;380;48.738;9.214;2024-01-15T01:35:45;14.90;;;10.20;;
793;SDS011;380;48.738;9.214;2024-01-15T01:38:12;13.57;;;7.43;;
793;SDS011;380;48.738;9.214;2024-01-15T01:40:38;13.97;;;8.73;;
793;SDS011;380;48.738;9.214;2024-01-15T01:43:04;11.20;;;7.20;;
793;SDS011;380;48.738;9.214;2024-01-15T01:45:31;11.40;;;8.63;;
793;SDS011;380;48.738;9.214;2024-01-15T01:47:56;17.53;;;8.67;;
793;SDS011;380;48.738;9.214;2024-01-15T01:50:22;10.27;;;7.83;;
793;SDS011;380;48.738;9.214;2024-01-15T01:52:49;13.40;;;7.37;;
793;SDS011;380;48.738;9.214;2024-01-15T01:55:15;12.40;;;8.10;;
793;SDS011;380;48.738;9.214;2024-01-15T01:57:41;14.07;;;8.20;;
793;SDS011;380;48.738;9.214;2024-01-15T02:00:07;12.23;;;8.07;;
793;SDS011;380;48.738;9.214;2024-01-15T02:02:33;15.00;;;8.23;;
793;SDS011;380;48.738;9.214;2024-01-15T02:04:59;12.53;;;8.43;;
793;SDS011;380;48.738;9.214;2024-01-15T02:07:25;14.40;;;8.43;;
793;SDS011;380;48.738;9.214;2024-01-15T02:09:51;16.13;;;9.23;;
793;SDS011;380;48.738;9.214;2024-01-15T02:12:17;14.83;;;9.17;;
793;SDS011;380;48.738;9.214;2024-01-15T02:14:43;13.77;;;8.03;;
793;SDS011;380;48.738;9.214;2024-01-15T02:17:09;13.80;;;8.57;;
793;SDS011;380;48.738;9.214;2024-01-15T02:19:35;15.43;;;9.13;;
793;SDS011;380;48.738;9.214;2024-01-15T02:22:05;17.33;;;8.93;;
793;SDS011;380;48.738;9.214;2024-01-15T02:24:31;16.97;;;9.80;;
793;SDS011;380;48.738;9.214;2024-01-15T02:26:57;11.27;;;7.43;;
793;SDS011;380;48.738;9.214;2024-01-15T02:29:23;14.23;;;8.70;;
793;SDS011;380;48.738;9.214;2024-01-15T02:31:49;13.97;;;8.27;;
793;SDS011;380;48.738;9.214;2024-01-15T02:34:15;14.87;;;8.07;;
793;SDS011;380;48.738;9.214;2024-01-15T02:36:41;18.80;;;8.53;;
793;SDS011;380;48.738;9.214;2024-01-15T02:39:07;12.97;;;7.63;;
793;SDS011;380;48.738;9.214;2024-01-15T02:41:33;10.17;;;7.47;;
793;SDS011;380;48.738;9.214;2024-01-15T02:43:59;10.67;;;8.33;;
793;SDS011;380;48.738;9.214;2024-01-15T02:46:25;17.30;;;8.30;;
793;SDS011;380;48.738;9.214;2024-01-15T02:48:51;11.93;;;8.50;;
793;SDS011;380;48.738;9.214;2024-01-15T02:51:17;15.10;;;8.20;;
793;SDS011;380;48.738;9.214;2024-01-15T02:53:43;13.20;;;6.83;;
793;SDS011;380;48.738;9.214;2024-01-15T02:56:08;12.93;;;9.10;;
793;SDS011;380;48.738;9.214;2024-01-15T02:58:34;13.33;;;7.97;;
793;SDS011;380;48.738;9.214;2024-01-15T03:01:00;13.27;;;8.77;;
793;SDS011;380;48.738;9.214;2024-01-15T03:03:26;15.27;;;8.73;;
793;SDS011;380;48.738;9.214;2024-01-15T03:05:52;14.17;;;8.23;;
793;SDS011;380;48.738;9.214;2024-01-15T03:08:18;19.43;;;8.33;;
793;SDS011;380;48.738;9.214;2024-01-15T03:10:44;12.73;;;7.57;;
793;SDS011;380;48.738;9.214;2024-01-15T03:13:10;13.13;;;7.90;;
793;SDS011;380;48.738;9.214;2024-01-15T03:15:36;13.87;;;8.60;;
793;SDS011;380;48.738;9.214;2024-01-15T03:18:05;12.10;;;8.03;;
793;SDS011;380;48.738;9.214;2024-01-15T03:20:31;19.30;;;9.57;;
793;SDS011;380;48.738;9.214;2024-01-15T03:22:57;11.63;;;8.63;;
793;SDS011;380;48.738;9.214;2024-01-15T03:25:23;17.47;;;9.03;;
793;SDS011;380;48.738;9.214;2024-01-15T03:27:49;13.07;;;8.13;;
793;SDS011;380;48.738;9.214;2024-01-15T03:30:15;11.13;;;7.23;;
793;SDS011;380;48.738;9.214;2024-01-15T03:32:41;11.13;;;8.17;;
793;SDS011;380;48.738;9.214;2024-01-15T03:35:07;11.53;;;7.50;;
793;SDS011;380;48.738;9.214;2024-01-15T03:37:33;10.83;;;7.03;;
793;SDS011;380;48.738;9.214;2024-01-15T03:40:00;11.97;;;8.63;;
793;SDS011;380;48.738;9.214;2024-01-15T03:42:26;16.13;;;7.63;;
793;SDS011;380;48.738;9.214;2024-01-15T03:44:55;12.97;;;8.17;;
793;SDS011;380;48.738;9.214;2024-01-15T03:47:21;15.43;;;8.60;;
793;SDS011;380;48.738;9.214;2024-01-15T03:49:47;13.33;;;8.10;;
793;SDS011;380;48.738;9.214;2024-01-15T03:52:13;13.70;;;7.27;;
793;SDS011;380;48.738;9.214;2024-01-15T03:54:39;12.30;;;7.80;;
793;SDS011;380;48.738;9.214;2024-01-15T03:57:04;12.93;;;9.20;;
793;SDS011;380;48.738;9.214;2024-01-15T03:59:30;12.10;;;7.03;;
793;SDS011;380;48.738;9.214;2024-01-15T04:01:56;17.63;;;9.53;;
793;SDS011;380;48.738;9.214;2024-01-15T04:04:22;14.40;;;8.73;;
793;SDS011;380;48.738;9.214;2024-01-15T04:06:48;15.60;;;7.53;;
793;SDS011;380;48.738;9.214;2024-01-15T04:09:15;14.50;;;7.43;;
793;SDS011;380;48.738;9.214;2024-01-15T04:11:41;11.00;;;8.13;;
793;SDS011;380;48.738;9.214;2024-01-15T04:14:06;10.60;;;6.77;;
793;SDS011;380;48.738;9.214;2024-01-15T04:16:32;12.60;;;7.57;;
793;SDS011;380;48.738;9.214;2024-01-15T04:18:58;14.40;;;7.97;;
793;SDS011;380;48.738;9.214;2024-01-15T04:21:24;9.50;;;7.37;;
793;SDS011;380;48.738;9.214;2024-01-15T04:23:50;12.03;;;6.50;;
793;SDS011;380;48.738;9.214;2024-01-15T04:26:16;15.03;;;8.00;;
793;SDS011;380;48.738;9.214;2024-01-15T04:28:42;13.67;;;7.80;;
793;SDS011;380;48.738;9.214;2024-01-15T04:31:08;10.23;;;6.03;;
793;SDS011;380;48.738;9.214;2024-01-15T04:33:34;10.83;;;6.63;;
793;SDS011;380;48.738;9.214;2024-01-15T04:36:03;8.67;;;5.90;;
793;SDS011;380;48.738;9.214;2024-01-15T04:38:30;10.90;;;8.23;;
793;SDS011;380;48.738;9.214;2024-01-15T04:40:57;10.43;;;5.67;;
793;SDS011;380;48.738;9.214;2024-01-15T04:43:23;14.57;;;8.93;;
793;SDS011;380;48.738;9.214;2024-01-15T04:45:49;12.83;;;7.37;;
793;SDS011;380;48.738;9.214;2024-01-15T04:48:15;11.43;;;7.10;;
793;SDS011;380;48.738;9.214;2024-01-15T04:50:41;14.50;;;8.83;;
793;SDS011;380;48.738;9.214;2024-01-15T04:53:07;10.03;;;7.97;;
793;SDS011;380;48.738;9.214;2024-01-15T04:55:33;15.80;;;7.43;;
793;SDS011;380;48.738;9.214;2024-01-15T04:57:58;11.87;;;7.83;;
793;SDS011;380;48.738;9.214;2024-01-15T05:00:24;12.73;;;8.27;;
793;SDS011;380;48.738;9.214;2024-01-15T05:02:50;10.20;;;7.53;;
793;SDS011;380;48.738;9.214;2024-01-15T05:05:16;14.33;;;7.70;;
793;SDS011;380;48.738;9.214;2024-01-15T05:07:42;12.90;;;7.43;;
793;SDS011;380;48.738;9.214;2024-01-15T05:10:08;16.80;;;9.10;;
793;SDS011;380;48.738;9.214;2024-01-15T05:12:34;11.77;;;6.80;;
793;SDS011;380;48.738;9.214;2024-01-15T05:15:00;11.10;;;7.27;;
793;SDS011;380;48.738;9.214;2024-01-15T05:17:26;13.30;;;7.00;;
793;SDS011;380;48.738;9.214;2024-01-15T05:19:52;13.50;;;8.23;;
793;SDS011;380;48.738;9.214;2024-01-15T05:22:18;12.83;;;7.33;;
793;SDS011;380;48.738;9.214;2024-01-15T05:24:46;12.43;;;7.10;;
793;SDS011;380;48.738;9.214;2024-01-15T05:27:12;13.20;;;7.30;;
793;SDS011;380;48.738;9.214;2024-01-15T05:29:38;14.97;;;8.60;;
793;SDS011;380;48.738;9.214;2024-01-15T05:32:04;14.10;;;6.57;;
793;SDS011;380;48.738;9.214;2024-01-15T05:34:30;10.70;;;7.27;;
793;SDS011;380;48.738;9.214;2024-01-15T05:36:56;11.30;;;7.07;;
793;SDS011;380;48.738;9.214;2024-01-15T05:39:22;11.30;;;7.80;;
793;SDS011;380;48.738;9.214;2024-01-15T05:41:47;13.63;;;7.47;;
793;SDS011;380;48.738;9.214;2024-01-15T05:44:13;13.40;;;6.17;;
793;SDS011;380;48.738;9.214;2024-01-15T05:46:39;14.20;;;8.23;;
793;SDS011;380;48.738;9.214;2024-01-15T05:49:08;11.93;;;6.63;;
793;SDS011;380;48.738;9.214;2024-01-15T05:51:34;9.47;;;7.40;;
793;SDS011;380;48.738;9.214;2024-01-15T05:54:00;10.93;;;7.33;;
793;SDS011;380;48.738;9.214;2024-01-15T05:56:26;15.27;;;8.93;;
793;SDS011;380;48.738;9.214;2024-01-15T05:58:52;16.80;;;9.10;;
793;SDS011;380;48.738;9.214;2024-01-15T06:01:18;15.97;;;9.97;;
793;SDS011;380;48.738;9.214;2024-01-15T06:03:44;14.63;;;8.53;;
793;SDS011;380;48.738;9.214;2024-01-15T06:06:10;12.33;;;8.00;;
793;SDS011;380;48.738;9.214;2024-01-15T06:08:39;16.43;;;9.70;;
793;SDS011;380;48.738;9.214;2024-01-15T06:11:06;17.07;;;9.33;;
793;SDS011;380;48.738;9.214;2024-01-15T06:13:32;12.97;;;8.73;;
793;SDS011;380;48.738;9.214;2024-01-15T06:15:58;13.63;;;8.57;;
793;SDS011;380;48.738;9.214;2024-01-15T06:18:24;18.23;;;9.60;;
793;SDS011;380;48.738;9.214;2024-01-15T06:20:50;14.63;;;9.30;;
793;SDS011;380;48.738;9.214;2024-01-15T06:23:16;17.93;;;10.33;;
793;SDS011;380;48.738;9.214;2024-01-15T06:25:42;15.03;;;9.00;;
793;SDS011;380;48.738;9.214;2024-01-15T06:28:08;14.53;;;8.73;;
793;SDS011;380;48.738;9.214;2024-01-15T06:30:34;15.60;;;7.87;;
793;SDS011;380;48.738;9.214;2024-01-15T06:33:00;14.53;;;8.93;;
793;SDS011;380;48.738;9.214;2024-01-15T06:35:26;17.17;;;8.97;;
793;SDS011;380;48.738;9.214;2024-01-15T06:37:52;12.40;;;8.43;;
793;SDS011;380;48.738;9.214;2024-01-15T06:40:18;10.90;;;8.53;;
793;SDS011;380;48.738;9.214;2024-01-15T06:42:44;13.33;;;8.03;;
793;SDS011;380;48.738;9.214;2024-01-15T06:45:10;13.37;;;9.83;;
793;SDS011;380;48.738;9.214;2024-01-15T06:47:36;16.43;;;9.43;;
793;SDS011;380;48.738;9.214;2024-01-15T06:50:02;12.27;;;8.23;;
793;SDS011;380;48.738;9.214;2024-01-15T06:52:29;9.90;;;8.37;;
793;SDS011;380;48.738;9.214;2024-01-15T06:54:55;9.80;;;7.40;;
793;SDS011;380;48.738;9.214;2024-01-15T06:57:21;13.30;;;8.53;;
793;SDS011;380;48.738;9.214;2024-01-15T06:59:47;12.37;;;7.57;;
793;SDS011;380;48.738;9.214;2024-01-15T07:02:13;15.30;;;9.67;;
793;SDS011;380;48.738;9.214;2024-01-15T07:04:39;15.93;;;9.53;;
793;SDS011;380;48.738;9.214;2024-01-15T07:07:05;9.87;;;6.80;;
793;SDS011;380;48.738;9.214;2024-01-15T07:09:31;12.20;;;8.53;;
793;SDS011;380;48.738;9.214;2024-01-15T07:11:57;7.47;;;5.47;;
793;SDS011;380;48.738;9.214;2024-01-15T07:14:23;10.77;;;7.93;;
793;SDS011;380;48.738;9.214;2024-01-15T07:16:49;12.73;;;6.90;;
793;SDS011;380;48.738;9.214;2024-01-15T07:19:15;10.33;;;7.37;;
793;SDS011;380;48.738;9.214;2024-01-15T07:21:41;12.97;;;6.97;;
793;SDS011;380;48.738;9.214;2024-01-15T07:24:08;9.03;;;7.23;;
793;SDS011;380;48.738;9.214;2024-01-15T07:26:34;12.37;;;6.63;;
793;SDS011;380;48.738;9.214;2024-01-15T07:29:00;10.27;;;7.73;;
793;SDS011;380;48.738;9.214;2024-01-15T07:31:26;9.83;;;7.97;;
793;SDS011;380;48.738;9.214;2024-01-15T07:33:52;15.30;;;7.77;;
793;SDS011;380;48.738;9.214;2024-01-15T07:36:18;9.13;;;6.33;;
793;SDS011;380;48.738;9.214;2024-01-15T07:38:44;8.23;;;6.23;;
793;SDS011;380;48.738;9.214;2024-01-15T07:41:10;14.20;;;6.33;;
793;SDS011;380;48.738;9.214;2024-01-15T07:43:37;11.50;;;7.50;;
793;SDS011;380;48.738;9.214;2024-01-15T07:46:03;13.50;;;7.50;;
793;SDS011;380;48.738;9.214;2024-01-15T07:48:29;10.90;;;6.40;;
793;SDS011;380;48.738;9.214;2024-01-15T07:50:55;15.70;;;8.30;;
793;SDS011;380;48.738;9.214;2024-01-15T07:53:21;10.83;;;7.53;;
793;SDS011;380;48.738;9.214;2024-01-15T07:55:47;20.80;;;8.17;;
793;SDS011;380;48.738;9.214;2024-01-15T07:58:13;10.63;;;7.23;;
793;SDS011;380;48.738;9.214;2024-01-15T08:00:39;12.77;;;7.90;;
793;SDS011;380;48.738;9.214;2024-01-15T08:03:08;12.20;;;7.77;;
793;SDS011;380;48.738;9.214;2024-01-15T08:05:34;17.20;;;8.37;;
793;SDS011;380;48.738;9.214;2024-01-15T08:08:00;10.23;;;7.40;;
793;SDS011;380;48.738;9.214;2024-01-15T08:10:26;14.13;;;8.67;;
793;SDS011;380;48.738;9.214;2024-01-15T08:12:52;8.53;;;6.10;;
793;SDS011;380;48.738;9.214;2024-01-15T08:15:18;15.77;;;7.40;;
793;SDS011;380;48.738;9.214;2024-01-15T08:17:44;8.40;;;6.07;;
793;SDS011;380;48.738;9.214;2024-01-15T08:20:10;16.53;;;6.93;;
793;SDS011;380;48.738;9.214;2024-01-15T08:22:36;8.63;;;5.50;;
793;SDS011;380;48.738;9.214;2024-01-15T08:25:04;12.93;;;7.03;;
793;SDS011;380;48.738;9.214;2024-01-15T08:27:30;15.13;;;7.07;;
793;SDS011;380;48.738;9.214;2024-01-15T08:29:56;11.67;;;6.47;;
793;SDS011;380;48.738;9.214;2024-01-15T08:32:22;14.30;;;7.03;;
793;SDS011;380;48.738;9.214;2024-01-15T08:34:48;9.97;;;7.00;;
793;SDS011;380;48.738;9.214;2024-01-15T08:37:17;9.27;;;6.63;;
793;SDS011;380;48.738;9.214;2024-01-15T08:39:43;8.00;;;6.10;;
793;SDS011;380;48.738;9.214;2024-01-15T08:42:09;13.40;;;6.50;;
793;SDS011;380;48.738;9.214;2024-01-15T08:44:35;11.47;;;5.43;;
793;SDS011;380;48.738;9.214;2024-01-15T08:47:01;8.27;;;5.17;;
793;SDS011;380;48.738;9.214;2024-01-15T08:49:28;17.53;;;6.47;;
793;SDS011;380;48.738;9.214;2024-01-15T08:51:53;9.40;;;5.37;;
793;SDS011;380;48.738;9.214;2024-01-15T08:54:20;7.93;;;5.57;;
793;SDS011;380;48.738;9.214;2024-01-15T08:56:46;8.83;;;5.93;;
793;SDS011;380;48.738;9.214;2024-01-15T08:59:12;7.87;;;5.00;;
793;SDS011;380;48.738;9.214;2024-01-15T09:01:38;7.67;;;4.80;;
793;SDS011;380;48.738;9.214;2024-01-15T09:04:04;12.97;;;5.47;;
793;SDS011;380;48.738;9.214;2024-01-15T09:06:30;7.97;;;5.23;;
793;SDS011;380;48.738;9.214;2024-01-15T09:08:56;8.87;;;5.67;;
793;SDS011;380;48.738;9.214;2024-01-15T09:11:22;7.40;;;3.90;;
793;SDS011;380;48.738;9.214;2024-01-15T09:13:48;8.97;;;4.67;;
793;SDS011;380;48.738;9.214;2024-01-15T09:16:14;6.23;;;3.73;;
793;SDS011;380;48.738;9.214;2024-01-15T09:18:40;7.10;;;3.97;;
793;SDS011;380;48.738;9.214;2024-01-15T09:21:06;5.30;;;3.83;;
793;SDS011;380;48.738;9.214;2024-01-15T09:23:32;7.83;;;3.70;;
793;SDS011;380;48.738;9.214;2024-01-15T09:25:58;6.70;;;4.67;;
793;SDS011;380;48.738;9.214;2024-01-15T09:28:24;8.93;;;5.47;;
793;SDS011;380;48.738;9.214;2024-01-15T09:30:59;8.77;;;4.93;;
793;SDS011;380;48.738;9.214;2024-01-15T09:33:25;5.93;;;3.40;;
793;SDS011;380;48.738;9.214;2024-01-15T09:35:51;7.27;;;4.43;;
793;SDS011;380;48.738;9.214;2024-01-15T09:38:17;7.20;;;3.80;;
793;SDS011;380;48.738;9.214;2024-01-15T09:40:44;5.47;;;3.17;;
793;SDS011;380;48.738;9.214;2024-01-15T09:43:11;9.30;;;3.63;;
793;SDS011;380;48.738;9.214;2024-01-15T09:45:37;11.97;;;3.20;;
793;SDS011;380;48.738;9.214;2024-01-15T09:48:04;8.30;;;3.37;;
793;SDS011;380;48.738;9.214;2024-01-15T09:50:30;9.53;;;2.97;;
793;SDS011;380;48.738;9.214;2024-01-15T09:52:56;6.77;;;3.10;;
793;SDS011;380;48.738;9.214;2024-01-15T09:55:22;4.60;;;2.67;;
793;SDS011;380;48.738;9.214;2024-01-15T09:57:48;4.83;;;3.20;;
793;SDS011;380;48.738;9.214;2024-01-15T10:00:18;4.47;;;3.00;;
793;SDS011;380;48.738;9.214;2024-01-15T10:02:45;6.17;;;3.10;;
793;SDS011;380;48.738;9.214;2024-01-15T10:05:11;5.10;;;3.60;;
793;SDS011;380;48.738;9.214;2024-01-15T10:07:37;5.10;;;2.97;;
793;SDS011;380;48.738;9.214;2024-01-15T10:10:04;9.33;;;3.47;;
793;SDS011;380;48.738;9.214;2024-01-15T10:12:32;4.60;;;3.00;;
793;SDS011;380;48.738;9.214;2024-01-15T10:14:58;6.97;;;3.60;;
793;SDS011;380;48.738;9.214;2024-01-15T10:17:24;6.47;;;3.83;;
793;SDS011;380;48.738;9.214;2024-01-15T10:19:52;7.70;;;4.10;;
793;SDS011;380;48.738;9.214;2024-01-15T10:22:18;8.77;;;3.67;;
793;SDS011;380;48.738;9.214;2024-01-15T10:24:45;5.67;;;3.60;;
793;SDS011;380;48.738;9.214;2024-01-15T10:27:13;6.77;;;4.33;;
793;SDS011;380;48.738;9.214;2024-01-15T10:29:40;8.80;;;3.97;;
793;SDS011;380;48.738;9.214;2024-01-15T10:32:07;5.27;;;3.77;;
793;SDS011;380;48.738;9.214;2024-01-15T10:34:39;10.37;;;3.73;;
793;SDS011;380;48.738;9.214;2024-01-15T10:37:08;10.30;;;3.93;;
793;SDS011;380;48.738;9.214;2024-01-15T10:39:35;5.30;;;4.03;;
793;SDS011;380;48.738;9.214;2024-01-15T10:42:02;5.73;;;4.33;;
793;SDS011;380;48.738;9.214;2024-01-15T10:44:28;11.20;;;4.50;;
793;SDS011;380;48.738;9.214;2024-01-15T10:46:55;6.47;;;4.07;;
793;SDS011;380;48.738;9.214;2024-01-15T10:49:21;8.60;;;3.77;;
793;SDS011;380;48.738;9.214;2024-01-15T10:51:49;8.03;;;4.07;;
793;SDS011;380;48.738;9.214;2024-01-15T10:54:16;5.90;;;3.50;;
793;SDS011;380;48.738;9.214;2024-01-15T10:56:42;10.50;;;4.23;;
793;SDS011;380;48.738;9.214;2024-01-15T10:59:09;13.23;;;4.93;;
793;SDS011;380;48.738;9.214;2024-01-15T11:01:36;7.93;;;3.77;;
793;SDS011;380;48.738;9.214;2024-01-15T11:04:02;4.70;;;3.40;;
793;SDS011;380;48.738;9.214;2024-01-15T11:06:28;5.20;;;3.63;;
793;SDS011;380;48.738;9.214;2024-01-15T11:09:06;5.90;;;3.40;;
793;SDS011;380;48.738;9.214;2024-01-15T11:11:35;9.50;;;4.50;;
793;SDS011;380;48.738;9.214;2024-01-15T11:14:01;9.23;;;3.83;;
793;SDS011;380;48.738;9.214;2024-01-15T11:16:47;5.23;;;3.37;;
793;SDS011;380;48.738;9.214;2024-01-15T11:19:13;9.03;;;5.03;;
793;SDS011;380;48.738;9.214;2024-01-15T11:21:42;6.53;;;3.53;;
793;SDS011;380;48.738;9.214;2024-01-15T11:24:08;9.70;;;5.73;;
793;SDS011;380;48.738;9.214;2024-01-15T11:26:37;14.47;;;4.83;;
793;SDS011;380;48.738;9.214;2024-01-15T11:29:07;7.17;;;4.23;;
793;SDS011;380;48.738;9.214;2024-01-15T11:34:02;8.90;;;4.93;;
793;SDS011;380;48.738;9.214;2024-01-15T11:41:57;6.17;;;3.60;;
793;SDS011;380;48.738;9.214;2024-01-15T11:44:23;11.88;;;4.32;;
793;SDS011;380;48.738;9.214;2024-01-15T11:46:57;11.07;;;4.53;;
793;SDS011;380;48.738;9.214;2024-01-15T11:49:34;11.63;;;4.87;;
793;SDS011;380;48.738;9.214;2024-01-15T11:52:02;9.30;;;4.60;;
793;SDS011;380;48.738;9.214;2024-01-15T11:54:31;7.03;;;4.10;;
793;SDS011;380;48.738;9.214;2024-01-15T11:57:00;7.47;;;4.73;;
793;SDS011;380;48.738;9.214;2024-01-15T11:59:28;6.67;;;5.17;;
793;SDS011;380;48.738;9.214;2024-01-15T12:01:54;6.67;;;4.17;;
793;SDS011;380;48.738;9.214;2024-01-15T12:04:20;6.77;;;4.37;;
793;SDS011;380;48.738;9.214;2024-01-15T12:06:46;10.07;;;5.33;;
793;SDS011;380;48.738;9.214;2024-01-15T12:09:12;8.03;;;4.87;;
793;SDS011;380;48.738;9.214;2024-01-15T12:11:38;6.83;;;3.67;;
793;SDS011;380;48.738;9.214;2024-01-15T12:14:07;8.90;;;4.50;;
793;SDS011;380;48.738;9.214;2024-01-15T12:16:33;10.93;;;4.90;;
793;SDS011;380;48.738;9.214;2024-01-15T12:19:02;8.63;;;4.90;;
793;SDS011;380;48.738;9.214;2024-01-15T12:21:27;6.17;;;3.73;;
793;SDS011;380;48.738;9.214;2024-01-15T12:23:55;6.60;;;4.40;;
793;SDS011;380;48.738;9.214;2024-01-15T12:26:21;6.63;;;4.00;;
793;SDS011;380;48.738;9.214;2024-01-15T12:28:49;8.07;;;5.00;;
793;SDS011;380;48.738;9.214;2024-01-15T12:31:15;6.17;;;4.43;;
793;SDS011;380;48.738;9.214;2024-01-15T12:33:41;10.10;;;4.90;;
793;SDS011;380;48.738;9.214;2024-01-15T12:36:08;6.83;;;4.37;;
793;SDS011;380;48.738;9.214;2024-01-15T12:38:34;7.87;;;4.93;;
793;SDS011;380;48.738;9.214;2024-01-15T12:41:00;8.83;;;4.93;;
793;SDS011;380;48.738;9.214;2024-01-15T12:43:26;7.43;;;5.67;;
793;SDS011;380;48.738;9.214;2024-01-15T12:45:52;9.50;;;4.40;;
793;SDS011;380;48.738;9.214;2024-01-15T12:48:18;6.53;;;4.97;;
793;SDS011;380;48.738;9.214;2024-01-15T12:50:44;6.93;;;5.13;;
793;SDS011;380;48.738;9.214;2024-01-15T12:53:10;5.77;;;4.67;;
793;SDS011;380;48.738;9.214;2024-01-15T12:55:36;7.33;;;5.10;;
793;SDS011;380;48.738;9.214;2024-01-15T12:58:02;8.40;;;4.67;;
793;SDS011;380;48.738;9.214;2024-01-15T13:00:29;8.60;;;5.13;;
793;SDS011;380;48.738;9.214;2024-01-15T13:02:55;8.30;;;4.67;;
793;SDS011;380;48.738;9.214;2024-01-15T13:05:22;6.53;;;4.63;;
793;SDS011;380;48.738;9.214;2024-01-15T13:07:48;7.33;;;5.53;;
793;SDS011;380;48.738;9.214;2024-01-15T13:10:14;8.57;;;5.37;;
793;SDS011;380;48.738;9.214;2024-01-15T13:12:40;14.07;;;5.80;;
793;SDS011;380;48.738;9.214;2024-01-15T13:15:06;8.40;;;5.77;;
793;SDS011;380;48.738;9.214;2024-01-15T13:17:37;7.35;;;4.13;;
793;SDS011;380;48.738;9.214;2024-01-15T13:20:03;8.73;;;5.60;;
793;SDS011;380;48.738;9.214;2024-01-15T13:22:29;6.73;;;4.90;;
793;SDS011;380;48.738;9.214;2024-01-15T13:24:57;7.70;;;4.63;;
793;SDS011;380;48.738;9.214;2024-01-15T13:27:23;10.47;;;5.17;;
793;SDS011;380;48.738;9.214;2024-01-15T13:29:49;6.73;;;5.07;;
793;SDS011;380;48.738;9.214;2024-01-15T13:32:17;7.00;;;4.93;;
793;SDS011;380;48.738;9.214;2024-01-15T13:34:48;7.00;;;3.93;;
793;SDS011;380;48.738;9.214;2024-01-15T13:37:14;7.30;;;4.13;;
793;SDS011;380;48.738;9.214;2024-01-15T13:39:40;7.27;;;4.60;;
793;SDS011;380;48.738;9.214;2024-01-15T13:42:06;6.23;;;3.80;;
793;SDS011;380;48.738;9.214;2024-01-15T13:44:32;7.00;;;4.30;;
793;SDS011;380;48.738;9.214;2024-01-15T13:46:57;8.57;;;4.17;;
793;SDS011;380;48.738;9.214;2024-01-15T13:49:23;7.83;;;4.70;;
793;SDS011;380;48.738;9.214;2024-01-15T13:51:49;7.10;;;4.17;;
793;SDS011;380;48.738;9.214;2024-01-15T13:54:15;13.00;;;6.90;;
793;SDS011;380;48.738;9.214;2024-01-15T13:56:41;9.27;;;6.20;;
793;SDS011;380;48.738;9.214;2024-01-15T13:59:08;11.43;;;5.00;;
793;SDS011;380;48.738;9.214;2024-01-15T14:01:34;7.50;;;4.93;;
793;SDS011;380;48.738;9.214;2024-01-15T14:04:00;7.57;;;4.87;;
793;SDS011;380;48.738;9.214;2024-01-15T14:06:26;6.80;;;5.03;;
793;SDS011;380;48.738;9.214;2024-01-15T14:08:52;7.17;;;4.67;;
793;SDS011;380;48.738;9.214;2024-01-15T14:11:18;7.37;;;4.03;;
793;SDS011;380;48.738;9.214;2024-01-15T14:13:43;6.20;;;3.73;;
793;SDS011;380;48.738;9.214;2024-01-15T14:16:09;7.80;;;4.90;;
793;SDS011;380;48.738;9.214;2024-01-15T14:18:36;11.57;;;5.13;;
793;SDS011;380;48.738;9.214;2024-01-15T14:21:02;6.43;;;4.10;;
793;SDS011;380;48.738;9.214;2024-01-15T14:23:28;7.40;;;5.10;;
793;SDS011;380;48.738;9.214;2024-01-15T14:25:54;6.13;;;4.67;;
793;SDS011;380;48.738;9.214;2024-01-15T14:28:20;7.43;;;4.47;;
793;SDS011;380;48.738;9.214;2024-01-15T14:30:48;9.20;;;5.23;;
793;SDS011;380;48.738;9.214;2024-01-15T14:33:14;5.33;;;3.73;;
793;SDS011;380;48.738;9.214;2024-01-15T14:35:39;5.80;;;3.77;;
793;SDS011;380;48.738;9.214;2024-01-15T14:38:05;5.03;;;3.43;;
793;SDS011;380;48.738;9.214;2024-01-15T14:40:32;4.27;;;3.37;;
793;SDS011;380;48.738;9.214;2024-01-15T14:42:58;8.83;;;4.13;;
793;SDS011;380;48.738;9.214;2024-01-15T14:45:24;5.63;;;2.60;;
793;SDS011;380;48.738;9.214;2024-01-15T14:47:52;7.67;;;3.40;;
793;SDS011;380;48.738;9.214;2024-01-15T14:50:18;5.70;;;3.80;;
793;SDS011;380;48.738;9.214;2024-01-15T14:52:44;8.80;;;3.83;;
793;SDS011;380;48.738;9.214;2024-01-15T14:55:11;4.57;;;3.50;;
793;SDS011;380;48.738;9.214;2024-01-15T14:57:37;7.10;;;3.87;;
793;SDS011;380;48.738;9.214;2024-01-15T15:00:06;5.03;;;3.47;;
793;SDS011;380;48.738;9.214;2024-01-15T15:02:33;4.47;;;4.03;;
793;SDS011;380;48.738;9.214;2024-01-15T15:05:00;5.73;;;4.20;;
793;SDS011;380;48.738;9.214;2024-01-15T15:07:26;6.50;;;4.30;;
793;SDS011;380;48.738;9.214;2024-01-15T15:09:52;4.70;;;3.37;;
793;SDS011;380;48.738;9.214;2024-01-15T15:12:18;4.77;;;3.77;;
793;SDS011;380;48.738;9.214;2024-01-15T15:14:44;6.10;;;4.87;;
793;SDS011;380;48.738;9.214;2024-01-15T15:17:10;8.37;;;4.97;;
793;SDS011;380;48.738;9.214;2024-01-15T15:19:37;8.87;;;5.50;;
793;SDS011;380;48.738;9.214;2024-01-15T15:22:04;6.27;;;4.27;;
793;SDS011;380;48.738;9.214;2024-01-15T15:24:30;7.50;;;5.77;;
793;SDS011;380;48.738;9.214;2024-01-15T15:26:56;8.77;;;5.80;;
793;SDS011;380;48.738;9.214;2024-01-15T15:29:22;6.87;;;4.70;;
793;SDS011;380;48.738;9.214;2024-01-15T15:31:49;8.10;;;5.03;;
793;SDS011;380;48.738;9.214;2024-01-15T15:34:15;8.37;;;5.33;;
793;SDS011;380;48.738;9.214;2024-01-15T15:36:41;8.10;;;6.20;;
793;SDS011;380;48.738;9.214;2024-01-15T15:39:07;7.23;;;5.30;;